sensor_id;sensor_type;location;lat;lon;timestamp;P1;durP1;ratioP1;P2;durP2;ratioP2
49241;SDS011;35079;52.704;13.814;2022-08-20T00:00:36;15.15;;;13.65;;
49241;SDS011;35079;52.704;13.814;2022-08-20T00:03:05;15.48;;;13.98;;
49241;SDS011;35079;52.704;13.814;2022-08-20T00:05:44;15.38;;;12.88;;
49241;SDS011;35079;52.704;13.814;2022-08-20T00:08:16;15.63;;;13.77;;
49241;SDS011;35079;52.704;13.814;2022-08-20T00:10:43;14.95;;;13.55;;
49241;SDS011;35079;52.704;13.814;2022-08-20T00:13:11;15.60;;;14.00;;
49241;SDS011;35079;52.704;13.814;2022-08-20T00:15:39;14.82;;;13.35;;
49241;SDS011;35079;52.704;13.814;2022-08-20T00:18:05;15.63;;;14.02;;
49241;SDS011;35079;52.704;13.814;2022-08-20T00:20:34;15.65;;;14.05;;
49241;SDS011;35079;52.704;13.814;2022-08-20T00:23:02;15.30;;;13.75;;
49241;SDS011;35079;52.704;13.814;2022-08-20T00:25:29;15.38;;;13.70;;
49241;SDS011;35079;52.704;13.814;2022-08-20T00:27:55;15.38;;;13.82;;
49241;SDS011;35079;52.704;13.814;2022-08-20T00:30:22;14.93;;;13.30;;
49241;SDS011;35079;52.704;13.814;2022-08-20T00:32:50;14.45;;;13.07;;
49241;SDS011;35079;52.704;13.814;2022-08-20T00:35:23;15.20;;;13.13;;
49241;SDS011;35079;52.704;13.814;2022-08-20T00:37:50;14.30;;;12.80;;
49241;SDS011;35079;52.704;13.814;2022-08-20T00:40:18;14.23;;;12.82;;
49241;SDS011;35079;52.704;13.814;2022-08-20T00:42:48;14.82;;;13.32;;
49241;SDS011;35079;52.704;13.814;2022-08-20T00:45:17;14.18;;;12.77;;
49241;SDS011;35079;52.704;13.814;2022-08-20T00:47:44;16.13;;;13.68;;
49241;SDS011;35079;52.704;13.814;2022-08-20T00:50:13;14.52;;;13.13;;
49241;SDS011;35079;52.704;13.814;2022-08-20T00:52:42;16.98;;;12.85;;
49241;SDS011;35079;52.704;13.814;2022-08-20T00:55:29;14.50;;;13.20;;
49241;SDS011;35079;52.704;13.814;2022-08-20T00:57:58;14.68;;;13.18;;
49241;SDS011;35079;52.704;13.814;2022-08-20T01:00:30;15.45;;;13.90;;
49241;SDS011;35079;52.704;13.814;2022-08-20T01:02:59;15.70;;;13.98;;
49241;SDS011;35079;52.704;13.814;2022-08-20T01:05:25;14.45;;;12.93;;
49241;SDS011;35079;52.704;13.814;2022-08-20T01:07:51;14.68;;;13.25;;
49241;SDS011;35079;52.704;13.814;2022-08-20T01:10:20;15.52;;;13.07;;
49241;SDS011;35079;52.704;13.814;2022-08-20T01:13:12;15.43;;;13.40;;
49241;SDS011;35079;52.704;13.814;2022-08-20T01:15:42;15.18;;;13.43;;
49241;SDS011;35079;52.704;13.814;2022-08-20T01:18:15;14.48;;;13.00;;
49241;SDS011;35079;52.704;13.814;2022-08-20T01:20:58;13.50;;;12.18;;
49241;SDS011;35079;52.704;13.814;2022-08-20T01:26:17;13.60;;;11.80;;
49241;SDS011;35079;52.704;13.814;2022-08-20T01:31:30;12.45;;;11.25;;
49241;SDS011;35079;52.704;13.814;2022-08-20T01:33:58;13.13;;;11.73;;
49241;SDS011;35079;52.704;13.814;2022-08-20T01:36:26;12.48;;;11.25;;
49241;SDS011;35079;52.704;13.814;2022-08-20T01:38:56;12.40;;;11.20;;
49241;SDS011;35079;52.704;13.814;2022-08-20T01:44:07;14.52;;;11.90;;
49241;SDS011;35079;52.704;13.814;2022-08-20T01:46:37;12.35;;;10.90;;
49241;SDS011;35079;52.704;13.814;2022-08-20T01:49:39;11.88;;;10.68;;
49241;SDS011;35079;52.704;13.814;2022-08-20T01:51:59;13.10;;;11.80;;
49241;SDS011;35079;52.704;13.814;2022-08-20T01:54:29;12.50;;;11.18;;
49241;SDS011;35079;52.704;13.814;2022-08-20T01:59:34;13.38;;;11.90;;
49241;SDS011;35079;52.704;13.814;2022-08-20T02:01:59;14.65;;;13.15;;
49241;SDS011;35079;52.704;13.814;2022-08-20T02:04:26;13.48;;;12.07;;
49241;SDS011;35079;52.704;13.814;2022-08-20T02:06:54;15.30;;;13.55;;
49241;SDS011;35079;52.704;13.814;2022-08-20T02:09:21;14.30;;;12.80;;
49241;SDS011;35079;52.704;13.814;2022-08-20T02:11:47;16.88;;;15.00;;
49241;SDS011;35079;52.704;13.814;2022-08-20T02:14:13;15.55;;;13.93;;
49241;SDS011;35079;52.704;13.814;2022-08-20T02:16:40;18.08;;;14.48;;
49241;SDS011;35079;52.704;13.814;2022-08-20T02:19:18;17.30;;;15.50;;
49241;SDS011;35079;52.704;13.814;2022-08-20T02:21:48;18.02;;;15.70;;
49241;SDS011;35079;52.704;13.814;2022-08-20T02:24:18;16.77;;;14.77;;
49241;SDS011;35079;52.704;13.814;2022-08-20T02:26:44;19.60;;;16.20;;
49241;SDS011;35079;52.704;13.814;2022-08-20T02:29:11;17.73;;;14.38;;
49241;SDS011;35079;52.704;13.814;2022-08-20T02:31:40;16.90;;;14.77;;
49241;SDS011;35079;52.704;13.814;2022-08-20T02:34:08;16.30;;;14.70;;
49241;SDS011;35079;52.704;13.814;2022-08-20T02:36:35;17.63;;;15.82;;
49241;SDS011;35079;52.704;13.814;2022-08-20T02:39:06;17.52;;;15.73;;
49241;SDS011;35079;52.704;13.814;2022-08-20T02:41:35;19.58;;;15.98;;
49241;SDS011;35079;52.704;13.814;2022-08-20T02:44:01;17.48;;;15.68;;
49241;SDS011;35079;52.704;13.814;2022-08-20T02:46:28;18.08;;;16.27;;
49241;SDS011;35079;52.704;13.814;2022-08-20T02:48:54;17.52;;;15.63;;
49241;SDS011;35079;52.704;13.814;2022-08-20T02:51:20;20.10;;;16.63;;
49241;SDS011;35079;52.704;13.814;2022-08-20T02:53:45;18.73;;;16.73;;
49241;SDS011;35079;52.704;13.814;2022-08-20T02:56:11;19.17;;;16.45;;
49241;SDS011;35079;52.704;13.814;2022-08-20T02:58:38;19.95;;;16.27;;
49241;SDS011;35079;52.704;13.814;2022-08-20T03:01:05;19.92;;;17.30;;
49241;SDS011;35079;52.704;13.814;2022-08-20T03:03:32;21.55;;;18.20;;
49241;SDS011;35079;52.704;13.814;2022-08-20T03:05:58;20.20;;;18.00;;
49241;SDS011;35079;52.704;13.814;2022-08-20T03:08:25;24.65;;;18.58;;
49241;SDS011;35079;52.704;13.814;2022-08-20T03:10:52;19.25;;;16.85;;
49241;SDS011;35079;52.704;13.814;2022-08-20T03:13:19;24.20;;;20.27;;
49241;SDS011;35079;52.704;13.814;2022-08-20T03:15:47;23.88;;;19.75;;
49241;SDS011;35079;52.704;13.814;2022-08-20T03:18:16;24.17;;;19.45;;
49241;SDS011;35079;52.704;13.814;2022-08-20T03:20:43;26.55;;;21.33;;
49241;SDS011;35079;52.704;13.814;2022-08-20T03:23:09;27.27;;;19.50;;
49241;SDS011;35079;52.704;13.814;2022-08-20T03:25:35;26.25;;;20.58;;
49241;SDS011;35079;52.704;13.814;2022-08-20T03:28:01;25.67;;;19.67;;
49241;SDS011;35079;52.704;13.814;2022-08-20T03:30:27;28.98;;;22.95;;
49241;SDS011;35079;52.704;13.814;2022-08-20T03:32:53;30.98;;;22.35;;
49241;SDS011;35079;52.704;13.814;2022-08-20T03:35:19;30.40;;;22.58;;
49241;SDS011;35079;52.704;13.814;2022-08-20T03:37:49;36.42;;;25.40;;
49241;SDS011;35079;52.704;13.814;2022-08-20T03:40:18;34.90;;;26.83;;
49241;SDS011;35079;52.704;13.814;2022-08-20T03:42:49;36.40;;;26.77;;
49241;SDS011;35079;52.704;13.814;2022-08-20T03:45:16;36.35;;;27.40;;
49241;SDS011;35079;52.704;13.814;2022-08-20T03:47:43;41.72;;;29.20;;
49241;SDS011;35079;52.704;13.814;2022-08-20T03:50:09;43.67;;;29.40;;
49241;SDS011;35079;52.704;13.814;2022-08-20T03:52:36;42.58;;;29.67;;
49241;SDS011;35079;52.704;13.814;2022-08-20T03:55:04;38.50;;;27.45;;
49241;SDS011;35079;52.704;13.814;2022-08-20T03:57:31;46.10;;;29.55;;
49241;SDS011;35079;52.704;13.814;2022-08-20T03:59:57;48.67;;;31.48;;
49241;SDS011;35079;52.704;13.814;2022-08-20T04:02:23;46.22;;;30.88;;
49241;SDS011;35079;52.704;13.814;2022-08-20T04:04:49;46.72;;;32.25;;
49241;SDS011;35079;52.704;13.814;2022-08-20T04:07:16;48.47;;;31.75;;
49241;SDS011;35079;52.704;13.814;2022-08-20T04:09:49;46.97;;;32.17;;
49241;SDS011;35079;52.704;13.814;2022-08-20T04:12:16;47.10;;;32.20;;
49241;SDS011;35079;52.704;13.814;2022-08-20T04:14:42;52.20;;;34.08;;
49241;SDS011;35079;52.704;13.814;2022-08-20T04:17:08;47.08;;;32.78;;
49241;SDS011;35079;52.704;13.814;2022-08-20T04:19:36;42.72;;;30.90;;
49241;SDS011;35079;52.704;13.814;2022-08-20T04:22:03;47.33;;;31.10;;
49241;SDS011;35079;52.704;13.814;2022-08-20T04:24:29;46.97;;;32.30;;
49241;SDS011;35079;52.704;13.814;2022-08-20T04:26:55;44.33;;;30.83;;
49241;SDS011;35079;52.704;13.814;2022-08-20T04:29:22;42.47;;;30.45;;
49241;SDS011;35079;52.704;13.814;2022-08-20T04:31:49;38.97;;;28.52;;
49241;SDS011;35079;52.704;13.814;2022-08-20T04:34:16;44.35;;;29.77;;
49241;SDS011;35079;52.704;13.814;2022-08-20T04:36:43;51.67;;;33.40;;
49241;SDS011;35079;52.704;13.814;2022-08-20T04:39:11;44.40;;;30.98;;
49241;SDS011;35079;52.704;13.814;2022-08-20T04:41:38;43.78;;;30.25;;
49241;SDS011;35079;52.704;13.814;2022-08-20T04:44:03;44.05;;;31.75;;
49241;SDS011;35079;52.704;13.814;2022-08-20T04:46:29;47.22;;;32.47;;
49241;SDS011;35079;52.704;13.814;2022-08-20T04:48:55;43.10;;;31.58;;
49241;SDS011;35079;52.704;13.814;2022-08-20T04:51:21;48.60;;;31.50;;
49241;SDS011;35079;52.704;13.814;2022-08-20T04:53:47;46.58;;;32.50;;
49241;SDS011;35079;52.704;13.814;2022-08-20T04:56:12;47.50;;;32.30;;
49241;SDS011;35079;52.704;13.814;2022-08-20T04:58:38;46.40;;;32.10;;
49241;SDS011;35079;52.704;13.814;2022-08-20T05:01:06;46.63;;;30.33;;
49241;SDS011;35079;52.704;13.814;2022-08-20T05:03:35;43.17;;;31.25;;
49241;SDS011;35079;52.704;13.814;2022-08-20T05:06:03;45.80;;;30.35;;
49241;SDS011;35079;52.704;13.814;2022-08-20T05:08:30;47.67;;;31.50;;
49241;SDS011;35079;52.704;13.814;2022-08-20T05:10:57;41.00;;;29.02;;
49241;SDS011;35079;52.704;13.814;2022-08-20T05:13:24;44.70;;;30.90;;
49241;SDS011;35079;52.704;13.814;2022-08-20T05:15:50;43.72;;;31.15;;
49241;SDS011;35079;52.704;13.814;2022-08-20T05:18:17;45.03;;;31.00;;
49241;SDS011;35079;52.704;13.814;2022-08-20T05:20:44;42.03;;;31.27;;
49241;SDS011;35079;52.704;13.814;2022-08-20T05:23:11;43.92;;;29.98;;
49241;SDS011;35079;52.704;13.814;2022-08-20T05:25:39;40.88;;;30.10;;
49241;SDS011;35079;52.704;13.814;2022-08-20T05:28:07;45.13;;;30.55;;
49241;SDS011;35079;52.704;13.814;2022-08-20T05:30:37;40.78;;;29.58;;
49241;SDS011;35079;52.704;13.814;2022-08-20T05:33:08;41.10;;;30.60;;
49241;SDS011;35079;52.704;13.814;2022-08-20T05:35:35;44.15;;;30.27;;
49241;SDS011;35079;52.704;13.814;2022-08-20T05:38:05;42.15;;;29.98;;
49241;SDS011;35079;52.704;13.814;2022-08-20T05:40:33;39.67;;;29.38;;
49241;SDS011;35079;52.704;13.814;2022-08-20T05:42:59;37.80;;;28.10;;
49241;SDS011;35079;52.704;13.814;2022-08-20T05:45:25;39.80;;;28.50;;
49241;SDS011;35079;52.704;13.814;2022-08-20T05:47:50;37.70;;;28.63;;
49241;SDS011;35079;52.704;13.814;2022-08-20T05:50:16;41.47;;;29.85;;
49241;SDS011;35079;52.704;13.814;2022-08-20T05:52:42;40.45;;;29.77;;
49241;SDS011;35079;52.704;13.814;2022-08-20T05:55:10;42.22;;;29.23;;
49241;SDS011;35079;52.704;13.814;2022-08-20T05:57:40;40.78;;;28.90;;
49241;SDS011;35079;52.704;13.814;2022-08-20T06:00:08;36.22;;;29.08;;
49241;SDS011;35079;52.704;13.814;2022-08-20T06:02:35;39.45;;;29.83;;
49241;SDS011;35079;52.704;13.814;2022-08-20T06:05:20;38.60;;;27.85;;
49241;SDS011;35079;52.704;13.814;2022-08-20T06:07:45;40.70;;;29.13;;
49241;SDS011;35079;52.704;13.814;2022-08-20T06:10:12;35.83;;;26.75;;
49241;SDS011;35079;52.704;13.814;2022-08-20T06:12:38;34.28;;;27.40;;
49241;SDS011;35079;52.704;13.814;2022-08-20T06:15:04;34.78;;;27.13;;
49241;SDS011;35079;52.704;13.814;2022-08-20T06:17:30;33.72;;;27.02;;
49241;SDS011;35079;52.704;13.814;2022-08-20T06:19:58;34.85;;;27.17;;
49241;SDS011;35079;52.704;13.814;2022-08-20T06:22:31;30.58;;;26.05;;
49241;SDS011;35079;52.704;13.814;2022-08-20T06:24:57;37.03;;;28.60;;
49241;SDS011;35079;52.704;13.814;2022-08-20T06:27:22;32.10;;;27.27;;
49241;SDS011;35079;52.704;13.814;2022-08-20T06:29:48;32.38;;;25.98;;
49241;SDS011;35079;52.704;13.814;2022-08-20T06:32:15;33.85;;;26.25;;
49241;SDS011;35079;52.704;13.814;2022-08-20T06:34:41;30.88;;;25.98;;
49241;SDS011;35079;52.704;13.814;2022-08-20T06:37:13;31.00;;;26.10;;
49241;SDS011;35079;52.704;13.814;2022-08-20T06:39:40;35.23;;;26.53;;
49241;SDS011;35079;52.704;13.814;2022-08-20T06:42:06;31.92;;;26.50;;
49241;SDS011;35079;52.704;13.814;2022-08-20T06:44:32;33.90;;;26.02;;
49241;SDS011;35079;52.704;13.814;2022-08-20T06:47:01;34.72;;;26.17;;
49241;SDS011;35079;52.704;13.814;2022-08-20T06:49:28;31.55;;;24.73;;
49241;SDS011;35079;52.704;13.814;2022-08-20T06:51:54;32.33;;;26.20;;
49241;SDS011;35079;52.704;13.814;2022-08-20T06:54:20;33.70;;;26.70;;
49241;SDS011;35079;52.704;13.814;2022-08-20T06:56:46;31.42;;;25.38;;
49241;SDS011;35079;52.704;13.814;2022-08-20T06:59:12;31.23;;;25.85;;
49241;SDS011;35079;52.704;13.814;2022-08-20T07:01:37;36.10;;;25.27;;
49241;SDS011;35079;52.704;13.814;2022-08-20T07:04:03;30.50;;;25.00;;
49241;SDS011;35079;52.704;13.814;2022-08-20T07:06:29;32.53;;;24.83;;
49241;SDS011;35079;52.704;13.814;2022-08-20T07:08:55;31.23;;;24.95;;
49241;SDS011;35079;52.704;13.814;2022-08-20T07:11:21;33.05;;;25.00;;
49241;SDS011;35079;52.704;13.814;2022-08-20T07:13:46;29.75;;;25.02;;
49241;SDS011;35079;52.704;13.814;2022-08-20T07:16:13;31.27;;;25.20;;
49241;SDS011;35079;52.704;13.814;2022-08-20T07:18:39;33.60;;;26.02;;
49241;SDS011;35079;52.704;13.814;2022-08-20T07:21:05;28.95;;;25.05;;
49241;SDS011;35079;52.704;13.814;2022-08-20T07:23:31;29.10;;;24.58;;
49241;SDS011;35079;52.704;13.814;2022-08-20T07:25:57;31.17;;;25.13;;
49241;SDS011;35079;52.704;13.814;2022-08-20T07:28:24;29.95;;;25.60;;
49241;SDS011;35079;52.704;13.814;2022-08-20T07:30:52;33.15;;;25.88;;
49241;SDS011;35079;52.704;13.814;2022-08-20T07:33:37;28.60;;;25.10;;
49241;SDS011;35079;52.704;13.814;2022-08-20T07:36:05;34.20;;;26.65;;
49241;SDS011;35079;52.704;13.814;2022-08-20T07:38:32;31.00;;;26.38;;
49241;SDS011;35079;52.704;13.814;2022-08-20T07:41:00;29.83;;;25.45;;
49241;SDS011;35079;52.704;13.814;2022-08-20T07:43:26;29.80;;;25.40;;
49241;SDS011;35079;52.704;13.814;2022-08-20T07:45:53;28.67;;;24.33;;
49241;SDS011;35079;52.704;13.814;2022-08-20T07:48:22;32.88;;;26.48;;
49241;SDS011;35079;52.704;13.814;2022-08-20T07:50:56;34.38;;;27.70;;
49241;SDS011;35079;52.704;13.814;2022-08-20T07:53:24;29.00;;;25.42;;
49241;SDS011;35079;52.704;13.814;2022-08-20T07:55:49;32.35;;;26.25;;
49241;SDS011;35079;52.704;13.814;2022-08-20T07:58:17;32.67;;;26.23;;
49241;SDS011;35079;52.704;13.814;2022-08-20T08:00:44;32.17;;;25.98;;
49241;SDS011;35079;52.704;13.814;2022-08-20T08:03:10;35.65;;;27.75;;
49241;SDS011;35079;52.704;13.814;2022-08-20T08:05:38;31.35;;;25.85;;
49241;SDS011;35079;52.704;13.814;2022-08-20T08:08:06;35.90;;;26.95;;
49241;SDS011;35079;52.704;13.814;2022-08-20T08:10:35;34.47;;;27.40;;
49241;SDS011;35079;52.704;13.814;2022-08-20T08:13:02;30.73;;;25.50;;
49241;SDS011;35079;52.704;13.814;2022-08-20T08:15:31;32.35;;;27.25;;
49241;SDS011;35079;52.704;13.814;2022-08-20T08:18:04;34.05;;;27.55;;
49241;SDS011;35079;52.704;13.814;2022-08-20T08:20:33;32.10;;;26.15;;
49241;SDS011;35079;52.704;13.814;2022-08-20T08:23:02;31.05;;;27.65;;
49241;SDS011;35079;52.704;13.814;2022-08-20T08:25:29;30.70;;;26.48;;
49241;SDS011;35079;52.704;13.814;2022-08-20T08:27:56;30.60;;;27.00;;
49241;SDS011;35079;52.704;13.814;2022-08-20T08:30:24;30.38;;;27.08;;
49241;SDS011;35079;52.704;13.814;2022-08-20T08:32:49;32.92;;;27.50;;
49241;SDS011;35079;52.704;13.814;2022-08-20T08:35:36;34.00;;;27.80;;
49241;SDS011;35079;52.704;13.814;2022-08-20T08:38:02;34.13;;;27.70;;
49241;SDS011;35079;52.704;13.814;2022-08-20T08:40:28;34.00;;;28.05;;
49241;SDS011;35079;52.704;13.814;2022-08-20T08:42:55;33.55;;;27.45;;
49241;SDS011;35079;52.704;13.814;2022-08-20T08:45:27;32.95;;;27.75;;
49241;SDS011;35079;52.704;13.814;2022-08-20T08:48:07;35.22;;;28.58;;
49241;SDS011;35079;52.704;13.814;2022-08-20T08:50:36;32.15;;;28.55;;
49241;SDS011;35079;52.704;13.814;2022-08-20T08:53:03;34.05;;;28.67;;
49241;SDS011;35079;52.704;13.814;2022-08-20T08:55:30;30.45;;;26.58;;
49241;SDS011;35079;52.704;13.814;2022-08-20T08:57:57;36.20;;;27.17;;
49241;SDS011;35079;52.704;13.814;2022-08-20T09:00:25;35.40;;;29.17;;
49241;SDS011;35079;52.704;13.814;2022-08-20T09:05:23;35.97;;;29.30;;
49241;SDS011;35079;52.704;13.814;2022-08-20T09:07:55;37.50;;;29.80;;
49241;SDS011;35079;52.704;13.814;2022-08-20T09:10:22;40.05;;;31.23;;
49241;SDS011;35079;52.704;13.814;2022-08-20T09:12:48;38.22;;;29.48;;
49241;SDS011;35079;52.704;13.814;2022-08-20T09:15:14;36.78;;;29.27;;
49241;SDS011;35079;52.704;13.814;2022-08-20T09:17:40;38.83;;;31.15;;
49241;SDS011;35079;52.704;13.814;2022-08-20T09:20:06;34.42;;;29.65;;
49241;SDS011;35079;52.704;13.814;2022-08-20T09:22:34;32.92;;;28.55;;
49241;SDS011;35079;52.704;13.814;2022-08-20T09:25:00;39.97;;;30.45;;
49241;SDS011;35079;52.704;13.814;2022-08-20T09:27:27;34.40;;;30.08;;
49241;SDS011;35079;52.704;13.814;2022-08-20T09:29:53;37.83;;;30.52;;
49241;SDS011;35079;52.704;13.814;2022-08-20T09:32:20;39.33;;;31.33;;
49241;SDS011;35079;52.704;13.814;2022-08-20T09:34:48;37.30;;;31.50;;
49241;SDS011;35079;52.704;13.814;2022-08-20T09:37:19;35.33;;;30.85;;
49241;SDS011;35079;52.704;13.814;2022-08-20T09:39:46;35.70;;;30.50;;
49241;SDS011;35079;52.704;13.814;2022-08-20T09:42:14;36.40;;;30.48;;
49241;SDS011;35079;52.704;13.814;2022-08-20T09:44:42;37.30;;;30.50;;
49241;SDS011;35079;52.704;13.814;2022-08-20T09:47:08;36.05;;;29.70;;
49241;SDS011;35079;52.704;13.814;2022-08-20T09:49:35;34.95;;;29.40;;
49241;SDS011;35079;52.704;13.814;2022-08-20T09:52:02;36.22;;;30.15;;
49241;SDS011;35079;52.704;13.814;2022-08-20T09:54:29;35.08;;;27.98;;
49241;SDS011;35079;52.704;13.814;2022-08-20T09:56:57;33.90;;;29.00;;
49241;SDS011;35079;52.704;13.814;2022-08-20T09:59:27;39.13;;;29.42;;
49241;SDS011;35079;52.704;13.814;2022-08-20T10:01:54;34.75;;;29.73;;
49241;SDS011;35079;52.704;13.814;2022-08-20T10:04:19;34.78;;;29.67;;
49241;SDS011;35079;52.704;13.814;2022-08-20T10:06:45;33.78;;;28.67;;
49241;SDS011;35079;52.704;13.814;2022-08-20T10:09:11;35.63;;;29.17;;
49241;SDS011;35079;52.704;13.814;2022-08-20T10:11:37;32.90;;;27.95;;
49241;SDS011;35079;52.704;13.814;2022-08-20T10:14:02;32.45;;;27.25;;
49241;SDS011;35079;52.704;13.814;2022-08-20T10:16:28;33.42;;;28.98;;
49241;SDS011;35079;52.704;13.814;2022-08-20T10:18:54;32.90;;;28.15;;
49241;SDS011;35079;52.704;13.814;2022-08-20T10:21:20;33.05;;;28.95;;
49241;SDS011;35079;52.704;13.814;2022-08-20T10:23:46;30.98;;;26.75;;
49241;SDS011;35079;52.704;13.814;2022-08-20T10:26:12;28.27;;;24.88;;
49241;SDS011;35079;52.704;13.814;2022-08-20T10:28:39;32.20;;;27.00;;
49241;SDS011;35079;52.704;13.814;2022-08-20T10:31:05;29.42;;;25.58;;
49241;SDS011;35079;52.704;13.814;2022-08-20T10:33:31;29.13;;;25.92;;
49241;SDS011;35079;52.704;13.814;2022-08-20T10:35:57;28.25;;;25.23;;
49241;SDS011;35079;52.704;13.814;2022-08-20T10:38:29;28.52;;;23.15;;
49241;SDS011;35079;52.704;13.814;2022-08-20T10:40:55;26.63;;;23.70;;
49241;SDS011;35079;52.704;13.814;2022-08-20T10:43:20;25.80;;;23.02;;
49241;SDS011;35079;52.704;13.814;2022-08-20T10:45:46;25.92;;;23.13;;
49241;SDS011;35079;52.704;13.814;2022-08-20T10:48:12;23.55;;;21.05;;
49241;SDS011;35079;52.704;13.814;2022-08-20T10:50:37;25.05;;;21.88;;
49241;SDS011;35079;52.704;13.814;2022-08-20T10:53:03;26.58;;;23.55;;
49241;SDS011;35079;52.704;13.814;2022-08-20T10:55:29;25.63;;;21.55;;
49241;SDS011;35079;52.704;13.814;2022-08-20T10:57:54;26.08;;;23.38;;
49241;SDS011;35079;52.704;13.814;2022-08-20T11:00:21;29.15;;;22.42;;
49241;SDS011;35079;52.704;13.814;2022-08-20T11:02:46;23.40;;;20.75;;
49241;SDS011;35079;52.704;13.814;2022-08-20T11:05:12;25.13;;;22.23;;
49241;SDS011;35079;52.704;13.814;2022-08-20T11:07:39;24.80;;;22.17;;
49241;SDS011;35079;52.704;13.814;2022-08-20T11:10:07;24.52;;;21.67;;
49241;SDS011;35079;52.704;13.814;2022-08-20T11:12:33;24.10;;;21.50;;
49241;SDS011;35079;52.704;13.814;2022-08-20T11:14:59;26.17;;;21.20;;
49241;SDS011;35079;52.704;13.814;2022-08-20T11:17:26;23.23;;;19.45;;
49241;SDS011;35079;52.704;13.814;2022-08-20T11:19:54;21.55;;;19.23;;
49241;SDS011;35079;52.704;13.814;2022-08-20T11:22:21;24.45;;;20.23;;
49241;SDS011;35079;52.704;13.814;2022-08-20T11:24:47;22.10;;;19.83;;
49241;SDS011;35079;52.704;13.814;2022-08-20T11:27:26;22.52;;;19.77;;
49241;SDS011;35079;52.704;13.814;2022-08-20T11:29:54;22.30;;;19.92;;
49241;SDS011;35079;52.704;13.814;2022-08-20T11:32:20;22.80;;;18.90;;
49241;SDS011;35079;52.704;13.814;2022-08-20T11:34:46;22.50;;;19.42;;
49241;SDS011;35079;52.704;13.814;2022-08-20T11:37:12;21.40;;;19.15;;
49241;SDS011;35079;52.704;13.814;2022-08-20T11:39:39;21.33;;;18.90;;
49241;SDS011;35079;52.704;13.814;2022-08-20T11:42:05;21.13;;;18.80;;
49241;SDS011;35079;52.704;13.814;2022-08-20T11:44:31;19.98;;;17.55;;
49241;SDS011;35079;52.704;13.814;2022-08-20T11:47:01;19.48;;;17.40;;
49241;SDS011;35079;52.704;13.814;2022-08-20T11:49:28;21.17;;;18.42;;
49241;SDS011;35079;52.704;13.814;2022-08-20T11:51:55;21.17;;;17.80;;
49241;SDS011;35079;52.704;13.814;2022-08-20T11:54:21;20.05;;;17.92;;
49241;SDS011;35079;52.704;13.814;2022-08-20T11:56:46;19.40;;;17.27;;
49241;SDS011;35079;52.704;13.814;2022-08-20T11:59:13;20.13;;;17.98;;
49241;SDS011;35079;52.704;13.814;2022-08-20T12:01:39;21.65;;;18.58;;
49241;SDS011;35079;52.704;13.814;2022-08-20T12:04:05;19.40;;;17.30;;
49241;SDS011;35079;52.704;13.814;2022-08-20T12:06:30;21.52;;;18.27;;
49241;SDS011;35079;52.704;13.814;2022-08-20T12:08:58;18.73;;;16.55;;
49241;SDS011;35079;52.704;13.814;2022-08-20T12:11:24;17.88;;;15.98;;
49241;SDS011;35079;52.704;13.814;2022-08-20T12:13:50;17.15;;;15.10;;
49241;SDS011;35079;52.704;13.814;2022-08-20T12:16:16;18.13;;;15.15;;
49241;SDS011;35079;52.704;13.814;2022-08-20T12:18:43;16.75;;;14.52;;
49241;SDS011;35079;52.704;13.814;2022-08-20T12:21:09;15.73;;;13.93;;
49241;SDS011;35079;52.704;13.814;2022-08-20T12:23:35;15.95;;;13.85;;
49241;SDS011;35079;52.704;13.814;2022-08-20T12:26:00;14.73;;;12.15;;
49241;SDS011;35079;52.704;13.814;2022-08-20T12:28:28;12.63;;;11.35;;
49241;SDS011;35079;52.704;13.814;2022-08-20T12:30:54;11.00;;;9.90;;
49241;SDS011;35079;52.704;13.814;2022-08-20T12:33:20;11.18;;;8.95;;
49241;SDS011;35079;52.704;13.814;2022-08-20T12:35:45;10.25;;;8.07;;
49241;SDS011;35079;52.704;13.814;2022-08-20T12:38:11;9.25;;;8.35;;
49241;SDS011;35079;52.704;13.814;2022-08-20T12:40:36;9.10;;;8.23;;
49241;SDS011;35079;52.704;13.814;2022-08-20T12:43:03;9.20;;;8.18;;
49241;SDS011;35079;52.704;13.814;2022-08-20T12:45:29;9.70;;;8.80;;
49241;SDS011;35079;52.704;13.814;2022-08-20T12:48:13;11.98;;;9.82;;
49241;SDS011;35079;52.704;13.814;2022-08-20T12:50:40;9.32;;;8.07;;
49241;SDS011;35079;52.704;13.814;2022-08-20T12:53:07;8.02;;;7.10;;
49241;SDS011;35079;52.704;13.814;2022-08-20T12:55:33;7.50;;;6.80;;
49241;SDS011;35079;52.704;13.814;2022-08-20T12:58:00;9.50;;;6.80;;
49241;SDS011;35079;52.704;13.814;2022-08-20T13:00:28;8.27;;;6.75;;
49241;SDS011;35079;52.704;13.814;2022-08-20T13:02:56;7.40;;;6.70;;
49241;SDS011;35079;52.704;13.814;2022-08-20T13:05:23;9.88;;;7.03;;
49241;SDS011;35079;52.704;13.814;2022-08-20T13:07:50;7.22;;;6.53;;
49241;SDS011;35079;52.704;13.814;2022-08-20T13:10:27;8.38;;;6.75;;
49241;SDS011;35079;52.704;13.814;2022-08-20T13:12:54;7.45;;;6.68;;
49241;SDS011;35079;52.704;13.814;2022-08-20T13:15:21;7.43;;;6.72;;
49241;SDS011;35079;52.704;13.814;2022-08-20T13:17:52;8.05;;;6.57;;
49241;SDS011;35079;52.704;13.814;2022-08-20T13:20:19;6.13;;;5.53;;
49241;SDS011;35079;52.704;13.814;2022-08-20T13:22:45;6.13;;;5.63;;
49241;SDS011;35079;52.704;13.814;2022-08-20T13:25:11;6.50;;;5.90;;
49241;SDS011;35079;52.704;13.814;2022-08-20T13:27:41;7.18;;;6.15;;
49241;SDS011;35079;52.704;13.814;2022-08-20T13:30:08;6.68;;;5.70;;
49241;SDS011;35079;52.704;13.814;2022-08-20T13:32:37;7.03;;;6.43;;
49241;SDS011;35079;52.704;13.814;2022-08-20T13:35:03;7.00;;;6.30;;
49241;SDS011;35079;52.704;13.814;2022-08-20T13:37:29;6.85;;;5.63;;
49241;SDS011;35079;52.704;13.814;2022-08-20T13:39:55;6.80;;;6.20;;
49241;SDS011;35079;52.704;13.814;2022-08-20T13:42:22;6.75;;;6.05;;
49241;SDS011;35079;52.704;13.814;2022-08-20T13:44:49;7.65;;;6.00;;
49241;SDS011;35079;52.704;13.814;2022-08-20T13:47:19;10.30;;;6.18;;
49241;SDS011;35079;52.704;13.814;2022-08-20T13:49:45;6.80;;;6.18;;
49241;SDS011;35079;52.704;13.814;2022-08-20T13:52:11;7.25;;;5.80;;
49241;SDS011;35079;52.704;13.814;2022-08-20T13:54:37;7.00;;;6.40;;
49241;SDS011;35079;52.704;13.814;2022-08-20T13:57:08;7.57;;;6.18;;
49241;SDS011;35079;52.704;13.814;2022-08-20T13:59:39;6.90;;;6.20;;
49241;SDS011;35079;52.704;13.814;2022-08-20T14:02:07;7.13;;;6.53;;
49241;SDS011;35079;52.704;13.814;2022-08-20T14:04:34;7.57;;;6.45;;
49241;SDS011;35079;52.704;13.814;2022-08-20T14:07:10;8.43;;;6.25;;
49241;SDS011;35079;52.704;13.814;2022-08-20T14:09:40;6.72;;;5.93;;
49241;SDS011;35079;52.704;13.814;2022-08-20T14:12:08;7.80;;;6.82;;
49241;SDS011;35079;52.704;13.814;2022-08-20T14:14:35;7.72;;;6.95;;
49241;SDS011;35079;52.704;13.814;2022-08-20T14:19:51;8.90;;;6.20;;
49241;SDS011;35079;52.704;13.814;2022-08-20T14:22:18;7.25;;;6.10;;
49241;SDS011;35079;52.704;13.814;2022-08-20T14:24:45;7.72;;;6.53;;
49241;SDS011;35079;52.704;13.814;2022-08-20T14:27:12;7.40;;;6.78;;
49241;SDS011;35079;52.704;13.814;2022-08-20T14:29:39;10.63;;;6.53;;